Warning: Javascript must be enabled to use all the features on this page!


Page Loading - Please Wait...

* We've detected you're using a mobile device. Find our Next Generation Station Page here.
Click to hideNews Bulletins

Peak Streamflow for the Nation

USGS 03036000 Mahoning Creek at Mahoning Creek Dam, PA

Armstrong County, Pennsylvania
Hydrologic Unit Code 05010006
Latitude  40°55'39", Longitude  79°17'29" NAD27
Drainage area 344  square miles
Gage datum 1,002.2 feet above NAVD88
Output formats
Table
Graph
Tab-separated file
peakfq (watstore) format
Reselect output format
Water
Year
Date Gage
Height
(feet)
Stream-
flow
(cfs)
1939 1939-02-03 6.50 5,420
1940 1940-03-31 7.83 9,300
1941 1941-04-05 5.64 3,6406
1942 1942-03 8.10Bd 10,4006,Bd
1943 1943-01-02 7.25 7,5406
1944 1944-05-25 5.63 3,6306
1945 1945-03-08 7.32 7,6906
1946 1946-03-01 5.78 3,9106
1947 1947-05-19 5.62 3,5406
1948 1948-04-17 7.44 8,0006
1949 1949-01-30 6.51 5,4206
1950 1950-02-18 6.61 5,6806
1951 1951-01-06 7.30 7,6906
1952 1952-01-30 7.52 8,2806
1953 1953-06-02 7.39 7,2006
1954 1954-03-03 6.64 5,3606
1955 1955-02-25 6.07 4,0606
1956 1956-04-11 5.96 3,8606
1957 1957-04-10 6.85 5,8406
1958 1958-05-09 6.54 5,1306
1959 1959-01-24 6.00 3,9606
1960 1960-04-06 6.74 5,6006
1961 1961-03-03 7.39 7,1006
1962 1962-03-02 5.83 3,5906
1963 1963-03-15 7.22 6,5706
1964 1964-03-12 7.90 9,4006
1965 1965-01-04 5.67 3,5406
1966 1966-02-16 7.49 7,8306
1967 1967-03-08 6.05 3,6906
1968 1968-02-06 6.60 4,5006
1969 1969-02-03 6.08 3,4206
1970 1970-04-04 6.11 3,4606
1971 1971-03-02 7.67 8,1106
1972 1972-06-27 7.85 7,8206
1973 1973-03-19 6.18 3,8606
1974 1974-09-04 6.27 4,0506
1975 1975-02-27 6.62 4,8206
1976 1976-02-20 6.59 4,7606
1977 1977-07-22 7.35 6,5606
1978 1978-03-28 6.31 4,1406
1979 1979-03-07 7.00 5,3006
1980 1980-08-14 5.95 3,2206
1981 1981-02-24 6.30 3,9006
1982 1982-03-21 6.13 3,5606
1983 1983-05-26 5.98 3,2706
1984 1984-02-17 6.29 3,8606
1985 1985-04-02 6.28 3,8606
1986 1985-11-19 6.28 3,8606
1987 1987-04-09 6.11 3,5206
1988 1988-02-05 6.42 4,1206
1989 1989-04-02 6.43 4,1406
1990 1990-07-17 6.91 5,1006
1991 1991-01-02 7.49 6,3606
2010 2010-03-17 6.04 3,4106
2011 2011-03-13 6.71 4,6606
2012 2012-01-29 5.88 3,1606
2013 2013-07-02 7.16 5,6306
2014 2013-12-26 6.43 4,1106
2015 2015-03-19 6.82 4,8906
2016 2015-10-01 6.10 3,5106
2017 2017-05-31 5.76 3,1206
2018 2018-09-12 7.66 6,8406
2019 2019-02-15 6.18 3,7906
2020 2020-03-30 6.32 4,0406
2021 2021-03-03 5.98 3,4606
2022 2022-05-09 6.54 4,4406
2023 2023-03-28 5.13 2,2206
?
  Peak Gage-Height Qualification Codes.
?
  Peak Streamflow Qualification Codes.